createdAt,value
2023-04-25T00:02:13.630Z,38.71
2023-04-25T00:04:41.120Z,38.16
2023-04-25T00:07:08.240Z,38.14
2023-04-25T00:09:35.103Z,38.55
2023-04-25T00:12:02.333Z,38.64
2023-04-25T00:14:30.316Z,38.21
2023-04-25T00:16:57.136Z,38.16
2023-04-25T00:19:23.859Z,38.15
2023-04-25T00:21:50.915Z,38.39
2023-04-25T00:24:17.607Z,38.58
2023-04-25T00:26:44.191Z,38.28
2023-04-25T00:29:10.916Z,38.11
2023-04-25T00:31:38.338Z,38.14
2023-04-25T00:34:04.971Z,38.03
2023-04-25T00:36:31.617Z,38.03
2023-04-25T00:38:58.296Z,38.10
2023-04-25T00:41:26.887Z,38.44
2023-04-25T00:43:54.976Z,38.29
2023-04-25T00:46:21.736Z,38.43
2023-04-25T00:48:48.383Z,38.27
2023-04-25T00:51:17.491Z,38.50
2023-04-25T00:53:44.356Z,38.41
2023-04-25T00:56:11.039Z,38.17
2023-04-25T00:58:38.449Z,38.36
2023-04-25T01:01:05.309Z,38.26
2023-04-25T01:03:34.400Z,38.09
2023-04-25T01:06:01.372Z,38.47
2023-04-25T01:08:28.118Z,38.44
2023-04-25T01:10:54.915Z,37.99
2023-04-25T01:13:21.600Z,38.52
2023-04-25T01:15:48.740Z,38.45
2023-04-25T01:18:15.377Z,38.33
2023-04-25T01:20:42.753Z,38.65
2023-04-25T01:23:09.517Z,38.52
2023-04-25T01:25:36.315Z,37.93
2023-04-25T01:28:03.000Z,38.58
2023-04-25T01:30:30.158Z,38.52
2023-04-25T01:32:57.680Z,38.13
2023-04-25T01:35:25.281Z,37.95
2023-04-25T01:37:54.280Z,38.26
2023-04-25T01:40:22.027Z,38.61
2023-04-25T01:42:48.638Z,38.21
2023-04-25T01:45:15.956Z,38.09
2023-04-25T01:47:44.604Z,38.00
2023-04-25T01:50:12.231Z,38.51
2023-04-25T01:52:39.441Z,38.39
2023-04-25T01:55:07.406Z,38.04
2023-04-25T01:57:36.581Z,38.46
2023-04-25T02:00:07.770Z,38.18
2023-04-25T02:02:40.294Z,38.20
2023-04-25T02:05:22.611Z,38.43
2023-04-25T02:07:50.107Z,38.64
2023-04-25T02:10:16.778Z,38.29
2023-04-25T02:13:07.282Z,38.32
2023-04-25T02:16:09.147Z,38.48
2023-04-25T02:18:38.748Z,38.23
2023-04-25T02:21:06.897Z,38.56
2023-04-25T02:23:33.736Z,38.58
2023-04-25T02:26:00.543Z,38.17
2023-04-25T02:28:27.488Z,38.21
2023-04-25T02:30:54.147Z,38.15
2023-04-25T02:33:21.996Z,38.45
2023-04-25T02:35:48.893Z,38.46
2023-04-25T02:38:15.654Z,38.69
2023-04-25T02:40:42.543Z,38.30
2023-04-25T02:43:09.229Z,38.73
2023-04-25T02:45:36.192Z,38.15
2023-04-25T02:48:04.099Z,38.56
2023-04-25T02:50:32.415Z,38.22
2023-04-25T02:52:59.209Z,38.70
2023-04-25T02:55:30.657Z,38.76
2023-04-25T02:57:58.202Z,38.54
2023-04-25T03:00:37.032Z,38.19
2023-04-25T03:03:03.873Z,38.78
2023-04-25T03:05:30.595Z,38.23
2023-04-25T03:07:57.351Z,38.38
2023-04-25T03:10:24.392Z,38.67
2023-04-25T03:12:51.271Z,38.35
2023-04-25T03:15:18.032Z,38.55
2023-04-25T03:17:44.688Z,38.24
2023-04-25T03:20:11.726Z,38.74
2023-04-25T03:22:38.405Z,38.44
2023-04-25T03:25:05.911Z,38.41
2023-04-25T03:27:32.595Z,38.22
2023-04-25T03:29:59.177Z,38.72
2023-04-25T03:32:26.017Z,38.76
2023-04-25T03:34:52.698Z,38.87
2023-04-25T03:37:19.331Z,38.36
2023-04-25T03:39:46.033Z,38.60
2023-04-25T03:42:12.922Z,38.61
2023-04-25T03:44:39.519Z,38.44
2023-04-25T03:47:07.101Z,38.53
2023-04-25T03:49:35.188Z,38.35
2023-04-25T03:52:03.848Z,38.63
2023-04-25T03:54:36.967Z,38.69
2023-04-25T03:57:07.163Z,38.75
2023-04-25T03:59:37.379Z,38.88
2023-04-25T04:02:04.045Z,38.52
2023-04-25T04:04:32.727Z,38.48
2023-04-25T04:07:00.832Z,39.03
2023-04-25T04:09:31.016Z,38.79
2023-04-25T04:11:59.744Z,38.93
2023-04-25T04:14:26.893Z,38.62
2023-04-25T04:16:55.556Z,38.57
2023-04-25T04:19:23.118Z,39.02
2023-04-25T04:22:02.999Z,38.88
2023-04-25T04:24:29.779Z,38.80
2023-04-25T04:27:01.522Z,38.84
2023-04-25T04:29:37.606Z,38.62
2023-04-25T04:32:14.308Z,38.90
2023-04-25T04:34:42.109Z,38.79
2023-04-25T04:37:09.187Z,39.05
2023-04-25T04:39:36.951Z,38.94
2023-04-25T04:42:26.649Z,38.46
2023-04-25T04:45:02.502Z,38.92
2023-04-25T04:47:46.712Z,38.67
2023-04-25T04:50:36.643Z,38.93
2023-04-25T04:53:32.228Z,38.75
2023-04-25T04:56:21.745Z,38.44
2023-04-25T04:59:08.630Z,38.84
2023-04-25T05:02:01.570Z,38.24
2023-04-25T05:04:48.502Z,38.75
2023-04-25T05:07:29.920Z,38.80
2023-04-25T05:10:10.131Z,38.44
2023-04-25T05:12:55.255Z,38.77
2023-04-25T05:15:39.776Z,38.88
2023-04-25T05:18:22.455Z,38.57
2023-04-25T05:21:13.504Z,38.91
2023-04-25T05:23:55.452Z,38.88
2023-04-25T05:26:45.201Z,39.02
2023-04-25T05:29:30.516Z,39.02
2023-04-25T05:32:06.364Z,38.94
2023-04-25T05:34:33.138Z,38.52
2023-04-25T05:37:02.669Z,39.09
2023-04-25T05:39:30.656Z,39.01
2023-04-25T05:42:09.223Z,38.79
2023-04-25T05:45:14.100Z,38.81
2023-04-25T05:48:13.026Z,39.01
2023-04-25T05:50:58.060Z,38.95
2023-04-25T05:53:44.957Z,39.16
2023-04-25T05:56:13.549Z,39.50
2023-04-25T05:58:41.148Z,39.62
2023-04-25T06:01:10.380Z,39.48
2023-04-25T06:03:39.008Z,39.83
2023-04-25T06:06:06.187Z,39.94
2023-04-25T06:08:33.200Z,39.70
2023-04-25T06:10:59.793Z,39.38
2023-04-25T06:13:26.401Z,39.94
2023-04-25T06:15:53.349Z,39.97
2023-04-25T06:18:20.414Z,39.57
2023-04-25T06:20:47.184Z,39.45
2023-04-25T06:23:13.790Z,39.98
2023-04-25T06:25:50.695Z,39.80
2023-04-25T06:28:17.433Z,40.03
2023-04-25T06:30:44.704Z,40.25
2023-04-25T06:33:14.738Z,39.68
2023-04-25T06:35:42.063Z,39.95
2023-04-25T06:38:11.621Z,39.95
2023-04-25T06:40:40.307Z,39.90
2023-04-25T06:43:08.512Z,39.90
2023-04-25T06:45:57.892Z,40.07
2023-04-25T06:48:28.239Z,39.84
2023-04-25T06:50:55.314Z,39.79
2023-04-25T06:53:21.990Z,40.22
2023-04-25T06:55:54.638Z,40.26
2023-04-25T06:58:23.381Z,40.18
2023-04-25T07:01:16.509Z,40.20
2023-04-25T07:03:43.320Z,40.10
2023-04-25T07:06:15.557Z,39.96
2023-04-25T07:08:42.387Z,40.13
2023-04-25T07:11:09.048Z,39.66
2023-04-25T07:13:37.422Z,40.14
2023-04-25T07:16:04.532Z,40.15
2023-04-25T07:18:33.688Z,40.23
2023-04-25T07:21:01.314Z,39.75
2023-04-25T07:23:28.701Z,39.92
2023-04-25T07:25:55.768Z,40.15
2023-04-25T07:28:25.455Z,40.17
2023-04-25T07:30:52.045Z,40.06
2023-04-25T07:33:21.275Z,40.31
2023-04-25T07:35:47.887Z,40.28
2023-04-25T07:38:15.065Z,39.89
2023-04-25T07:40:41.668Z,40.13
2023-04-25T07:43:09.869Z,39.93
2023-04-25T07:45:48.045Z,39.90
2023-04-25T07:48:20.204Z,40.31
2023-04-25T07:50:47.899Z,39.96
2023-04-25T07:53:15.615Z,40.23
2023-04-25T07:55:48.401Z,40.24
2023-04-25T07:58:22.068Z,39.82
2023-04-25T08:00:51.392Z,40.31
2023-04-25T08:03:44.157Z,40.25
2023-04-25T08:06:18.940Z,39.78
2023-04-25T08:08:57.959Z,40.21
2023-04-25T08:11:32.194Z,40.13
2023-04-25T08:13:58.927Z,40.21
2023-04-25T08:16:27.055Z,39.93
2023-04-25T08:18:54.047Z,40.02
2023-04-25T08:21:21.294Z,40.12
2023-04-25T08:23:48.126Z,40.01
2023-04-25T08:26:23.692Z,39.93
2023-04-25T08:28:51.588Z,40.16
2023-04-25T08:31:18.487Z,40.21
2023-04-25T08:33:58.462Z,40.43
2023-04-25T08:36:39.412Z,40.17
2023-04-25T08:39:18.583Z,40.25
2023-04-25T08:42:04.675Z,39.98
2023-04-25T08:44:31.622Z,40.39
2023-04-25T08:46:58.533Z,40.30
2023-04-25T08:49:35.833Z,40.39
2023-04-25T08:52:06.777Z,40.17
2023-04-25T08:54:37.269Z,40.37
2023-04-25T08:57:07.625Z,40.51
2023-04-25T08:59:35.182Z,39.92
2023-04-25T09:02:02.884Z,40.52
2023-04-25T09:04:34.606Z,40.22
2023-04-25T09:07:01.322Z,40.01
2023-04-25T09:09:30.390Z,40.04
2023-04-25T09:11:57.421Z,40.49
2023-04-25T09:14:26.828Z,40.36
2023-04-25T09:17:13.851Z,39.91
2023-04-25T09:20:13.666Z,39.90
2023-04-25T09:22:41.013Z,40.18
2023-04-25T09:25:12.311Z,40.21
2023-04-25T09:27:51.989Z,40.28
2023-04-25T09:30:36.054Z,39.82
2023-04-25T09:33:12.464Z,39.90
2023-04-25T09:35:44.403Z,40.14
2023-04-25T09:38:19.499Z,40.27
2023-04-25T09:40:57.666Z,40.21
2023-04-25T09:43:34.316Z,40.28
2023-04-25T09:46:01.768Z,40.24
2023-04-25T09:48:30.469Z,39.92
2023-04-25T09:51:11.409Z,40.23
2023-04-25T09:53:40.308Z,40.17
2023-04-25T09:56:27.747Z,40.44
2023-04-25T09:58:55.715Z,40.08
2023-04-25T10:01:22.789Z,40.34
2023-04-25T10:04:11.837Z,40.22
2023-04-25T10:06:54.503Z,40.30
2023-04-25T10:09:22.335Z,40.16
2023-04-25T10:11:49.115Z,40.56
2023-04-25T10:14:15.919Z,40.59
2023-04-25T10:16:42.975Z,40.62
2023-04-25T10:19:10.964Z,40.06
2023-04-25T10:21:46.043Z,40.52
2023-04-25T10:24:12.786Z,40.16
2023-04-25T10:26:39.843Z,40.69
2023-04-25T10:29:06.579Z,40.72
2023-04-25T10:31:33.530Z,40.41
2023-04-25T10:34:01.579Z,40.30
2023-04-25T10:36:32.902Z,40.78
2023-04-25T10:39:07.792Z,40.70
2023-04-25T10:41:46.315Z,40.48
2023-04-25T10:44:12.919Z,40.30
2023-04-25T10:46:39.532Z,40.31
2023-04-25T10:49:06.311Z,40.64
2023-04-25T10:51:50.882Z,40.27
2023-04-25T10:54:21.165Z,40.71
2023-04-25T10:56:49.619Z,40.37
2023-04-25T10:59:17.788Z,40.56
2023-04-25T11:01:50.066Z,40.33
2023-04-25T11:04:37.062Z,40.56
2023-04-25T11:07:07.998Z,40.40
2023-04-25T11:09:36.822Z,40.93
2023-04-25T11:12:03.547Z,40.73
2023-04-25T11:14:30.189Z,40.46
2023-04-25T11:17:00.353Z,40.99
2023-04-25T11:19:28.724Z,40.76
2023-04-25T11:21:59.513Z,40.46
2023-04-25T11:24:35.527Z,40.86
2023-04-25T11:27:06.686Z,40.93
2023-04-25T11:29:34.957Z,40.87
2023-04-25T11:32:02.295Z,40.92
2023-04-25T11:34:34.095Z,41.54
2023-04-25T11:37:02.917Z,41.15
2023-04-25T11:39:30.166Z,41.18
2023-04-25T11:41:58.186Z,41.11
2023-04-25T11:44:25.281Z,40.75
2023-04-25T11:46:51.888Z,41.13
2023-04-25T11:49:19.502Z,40.89
2023-04-25T11:51:48.377Z,41.30
2023-04-25T11:54:16.310Z,41.09
2023-04-25T11:56:43.827Z,41.42
2023-04-25T11:59:11.516Z,41.47
2023-04-25T12:01:40.571Z,41.00
2023-04-25T12:04:14.913Z,41.55
2023-04-25T12:06:42.858Z,41.74
2023-04-25T12:09:11.931Z,42.43
2023-04-25T12:11:56.984Z,42.22
2023-04-25T12:14:28.196Z,42.21
2023-04-25T12:17:00.554Z,42.41
2023-04-25T12:19:34.415Z,42.89
2023-04-25T12:22:02.169Z,43.27
2023-04-25T12:24:29.172Z,43.22
2023-04-25T12:27:04.580Z,43.47
2023-04-25T12:29:41.896Z,43.80
2023-04-25T12:32:14.869Z,43.63
2023-04-25T12:34:41.567Z,43.81
2023-04-25T12:37:08.454Z,43.09
2023-04-25T12:39:35.165Z,42.92
2023-04-25T12:42:01.912Z,43.93
2023-04-25T12:44:28.527Z,43.43
2023-04-25T12:46:55.923Z,43.71
2023-04-25T12:49:23.306Z,43.37
2023-04-25T12:51:50.219Z,43.15
2023-04-25T12:54:16.912Z,42.94
2023-04-25T12:56:43.675Z,43.58
2023-04-25T12:59:10.481Z,43.59
2023-04-25T13:01:37.494Z,44.05
2023-04-25T13:04:04.408Z,43.77
2023-04-25T13:06:31.913Z,44.33
2023-04-25T13:08:58.784Z,45.07
2023-04-25T13:11:25.545Z,45.11
2023-04-25T13:13:52.494Z,44.57
2023-04-25T13:16:21.774Z,45.14
2023-04-25T13:18:48.543Z,45.37
2023-04-25T13:21:15.563Z,45.64
2023-04-25T13:23:43.799Z,44.96
2023-04-25T13:26:10.524Z,45.87
2023-04-25T13:28:37.121Z,45.24
2023-04-25T13:31:03.744Z,45.57
2023-04-25T13:33:30.697Z,45.50
2023-04-25T13:35:58.203Z,45.34
2023-04-25T13:38:25.640Z,45.54
2023-04-25T13:40:53.635Z,45.53
2023-04-25T13:43:21.786Z,46.22
2023-04-25T13:45:49.727Z,46.28
2023-04-25T13:48:16.290Z,45.77
2023-04-25T13:50:42.885Z,45.57
2023-04-25T13:53:09.523Z,45.78
2023-04-25T13:55:37.774Z,45.85
2023-04-25T13:58:10.988Z,45.68
2023-04-25T14:00:39.982Z,45.71
2023-04-25T14:03:08.824Z,45.51
2023-04-25T14:05:39.101Z,45.65
2023-04-25T14:08:09.779Z,45.82
2023-04-25T14:10:36.993Z,46.12
2023-04-25T14:13:04.267Z,45.75
2023-04-25T14:15:34.726Z,45.77
2023-04-25T14:18:02.087Z,46.41
2023-04-25T14:20:28.903Z,45.62
2023-04-25T14:22:57.024Z,45.87
2023-04-25T14:25:24.157Z,45.48
2023-04-25T14:27:51.083Z,45.65
2023-04-25T14:30:19.715Z,45.19
2023-04-25T14:32:46.609Z,46.29
2023-04-25T14:35:13.746Z,45.63
2023-04-25T14:37:40.473Z,45.97
2023-04-25T14:40:11.422Z,46.46
2023-04-25T14:42:38.468Z,45.85
2023-04-25T14:45:06.219Z,45.97
2023-04-25T14:47:33.096Z,46.02
2023-04-25T14:49:59.984Z,46.07
2023-04-25T14:52:26.758Z,46.54
2023-04-25T14:54:53.461Z,45.78
2023-04-25T14:57:20.197Z,46.09
2023-04-25T14:59:46.841Z,46.49
2023-04-25T15:02:13.782Z,46.01
2023-04-25T15:04:40.674Z,45.73
2023-04-25T15:07:07.331Z,46.34
2023-04-25T15:09:33.861Z,46.04
2023-04-25T15:12:00.547Z,45.88
2023-04-25T15:14:27.131Z,46.04
2023-04-25T15:16:53.904Z,45.62
2023-04-25T15:19:21.045Z,45.39
2023-04-25T15:21:48.320Z,46.91
2023-04-25T15:24:16.087Z,47.74
2023-04-25T15:26:42.802Z,47.55
2023-04-25T15:29:09.388Z,47.68
2023-04-25T15:31:36.634Z,48.37
2023-04-25T15:34:03.420Z,47.89
2023-04-25T15:36:31.298Z,48.64
2023-04-25T15:38:58.211Z,48.47
2023-04-25T15:41:26.262Z,48.67
2023-04-25T15:43:53.618Z,48.61
2023-04-25T15:46:21.850Z,49.22
2023-04-25T15:48:48.493Z,49.20
2023-04-25T15:51:15.632Z,49.17
2023-04-25T15:53:42.169Z,49.16
2023-04-25T15:56:08.876Z,49.49
2023-04-25T15:58:36.223Z,49.14
2023-04-25T16:01:04.822Z,49.80
2023-04-25T16:03:33.724Z,49.79
2023-04-25T16:06:02.974Z,49.90
2023-04-25T16:08:29.799Z,50.21
2023-04-25T16:10:57.367Z,49.76
2023-04-25T16:13:23.947Z,49.92
2023-04-25T16:15:50.807Z,50.17
2023-04-25T16:18:17.888Z,50.52
2023-04-25T16:20:44.823Z,50.21
2023-04-25T16:23:11.427Z,50.14
2023-04-25T16:25:38.197Z,50.50
2023-04-25T16:28:04.826Z,50.44
2023-04-25T16:30:31.608Z,50.27
2023-04-25T16:32:58.316Z,51.02
2023-04-25T16:35:25.425Z,50.86
2023-04-25T16:37:52.114Z,50.50
2023-04-25T16:40:18.823Z,51.19
2023-04-25T16:42:45.401Z,51.31
2023-04-25T16:45:13.812Z,50.93
2023-04-25T16:47:40.430Z,51.35
2023-04-25T16:50:07.625Z,51.17
2023-04-25T16:52:34.220Z,51.50
2023-04-25T16:55:01.434Z,51.21
2023-04-25T16:57:28.100Z,51.57
2023-04-25T16:59:54.727Z,51.40
2023-04-25T17:02:21.473Z,51.30
2023-04-25T17:04:48.123Z,51.54
2023-04-25T17:07:15.878Z,51.81
2023-04-25T17:09:42.525Z,51.47
2023-04-25T17:12:09.098Z,51.70
2023-04-25T17:14:37.133Z,51.40
2023-04-25T17:17:03.994Z,51.55
2023-04-25T17:19:31.657Z,51.70
2023-04-25T17:21:58.288Z,52.52
2023-04-25T17:24:25.010Z,52.62
2023-04-25T17:26:51.577Z,52.84
2023-04-25T17:29:19.065Z,52.41
2023-04-25T17:31:45.769Z,52.67
2023-04-25T17:34:17.799Z,52.45
2023-04-25T17:36:48.077Z,52.30
2023-04-25T17:39:17.609Z,52.14
2023-04-25T17:41:44.996Z,52.50
2023-04-25T17:44:11.950Z,52.30
2023-04-25T17:46:38.922Z,52.30
2023-04-25T17:49:06.095Z,52.09
2023-04-25T17:51:32.922Z,52.22
2023-04-25T17:53:59.547Z,52.15
2023-04-25T17:56:27.582Z,52.33
2023-04-25T17:58:55.196Z,52.20
2023-04-25T18:01:22.529Z,52.15
2023-04-25T18:03:49.923Z,52.18
2023-04-25T18:06:17.991Z,52.22
2023-04-25T18:08:44.850Z,52.57
2023-04-25T18:11:11.973Z,52.74
2023-04-25T18:13:39.575Z,52.43
2023-04-25T18:16:06.806Z,52.67
2023-04-25T18:18:35.737Z,52.54
2023-04-25T18:21:04.990Z,52.47
2023-04-25T18:23:33.707Z,52.66
2023-04-25T18:26:00.560Z,52.46
2023-04-25T18:28:27.250Z,52.90
2023-04-25T18:30:54.260Z,52.56
2023-04-25T18:33:24.086Z,53.01
2023-04-25T18:35:58.217Z,52.69
2023-04-25T18:41:01.370Z,52.89
2023-04-25T18:43:37.032Z,52.66
2023-04-25T18:46:03.649Z,52.54
2023-04-25T18:48:30.291Z,52.73
2023-04-25T18:50:56.813Z,53.01
2023-04-25T18:53:23.518Z,52.63
2023-04-25T18:55:50.052Z,52.77
2023-04-25T18:58:17.205Z,53.04
2023-04-25T19:00:43.833Z,52.72
2023-04-25T19:03:10.820Z,52.71
2023-04-25T19:05:37.471Z,52.92
2023-04-25T19:08:04.320Z,53.24
2023-04-25T19:10:30.951Z,53.27
2023-04-25T19:12:57.570Z,53.20
2023-04-25T19:15:24.196Z,53.31
2023-04-25T19:17:51.501Z,53.18
2023-04-25T19:20:18.373Z,53.15
2023-04-25T19:22:45.080Z,53.45
2023-04-25T19:25:11.686Z,53.30
2023-04-25T19:27:38.812Z,53.16
2023-04-25T19:30:09.058Z,52.96
2023-04-25T19:32:35.952Z,53.48
2023-04-25T19:35:03.917Z,53.25
2023-04-25T19:37:30.913Z,53.59
2023-04-25T19:39:57.609Z,53.51
2023-04-25T19:42:24.230Z,53.30
2023-04-25T19:44:51.558Z,53.83
2023-04-25T19:47:18.207Z,53.69
2023-04-25T19:49:44.863Z,53.55
2023-04-25T19:52:14.903Z,53.55
2023-04-25T19:54:42.173Z,53.18
2023-04-25T19:57:09.494Z,53.62
2023-04-25T19:59:36.145Z,53.77
2023-04-25T20:02:04.717Z,53.82
2023-04-25T20:04:31.620Z,53.47
2023-04-25T20:06:58.948Z,53.33
2023-04-25T20:09:26.106Z,53.88
2023-04-25T20:11:53.091Z,53.79
2023-04-25T20:14:20.419Z,53.98
2023-04-25T20:16:47.751Z,53.88
2023-04-25T20:19:14.474Z,53.66
2023-04-25T20:21:41.160Z,53.63
2023-04-25T20:24:08.561Z,53.82
2023-04-25T20:26:35.562Z,53.82
2023-04-25T20:29:02.199Z,53.90
2023-04-25T20:31:29.991Z,54.10
2023-04-25T20:33:56.631Z,53.61
2023-04-25T20:36:23.243Z,54.11
2023-04-25T20:38:50.060Z,53.82
2023-04-25T20:41:16.914Z,53.97
2023-04-25T20:43:43.551Z,54.11
2023-04-25T20:46:10.332Z,54.04
2023-04-25T20:48:37.010Z,54.08
2023-04-25T20:51:04.031Z,54.11
2023-04-25T20:53:30.615Z,54.96
2023-04-25T20:55:57.425Z,55.33
2023-04-25T20:58:24.142Z,55.13
2023-04-25T21:00:51.270Z,55.39
2023-04-25T21:03:18.062Z,55.18
2023-04-25T21:05:44.800Z,55.40
2023-04-25T21:08:11.348Z,55.74
2023-04-25T21:10:38.017Z,55.57
2023-04-25T21:13:04.607Z,55.63
2023-04-25T21:15:31.285Z,55.20
2023-04-25T21:17:57.863Z,55.16
2023-04-25T21:20:24.625Z,55.35
2023-04-25T21:22:53.872Z,55.26
2023-04-25T21:25:30.794Z,54.95
2023-04-25T21:27:59.570Z,55.04
2023-04-25T21:30:26.381Z,55.18
2023-04-25T21:32:53.229Z,54.98
2023-04-25T21:35:21.393Z,55.07
2023-04-25T21:37:48.368Z,54.58
2023-04-25T21:40:15.133Z,55.09
2023-04-25T21:42:45.827Z,54.58
2023-04-25T21:45:12.432Z,54.94
2023-04-25T21:47:39.263Z,55.01
2023-04-25T21:50:06.290Z,54.83
2023-04-25T21:52:32.944Z,54.55
2023-04-25T21:54:59.481Z,54.68
2023-04-25T21:57:26.307Z,54.84
2023-04-25T21:59:53.432Z,54.54
2023-04-25T22:02:20.200Z,54.60
2023-04-25T22:04:47.549Z,55.01
2023-04-25T22:07:15.136Z,54.93
2023-04-25T22:09:53.623Z,54.83
2023-04-25T22:12:20.807Z,54.81
2023-04-25T22:14:47.503Z,54.40
2023-04-25T22:17:14.129Z,54.34
2023-04-25T22:19:40.671Z,54.50
2023-04-25T22:22:07.577Z,54.55
2023-04-25T22:24:34.437Z,54.45
2023-04-25T22:27:01.000Z,54.69
2023-04-25T22:29:27.881Z,54.26
2023-04-25T22:31:54.527Z,54.40
2023-04-25T22:34:21.428Z,54.42
2023-04-25T22:36:49.240Z,54.74
2023-04-25T22:39:16.688Z,54.20
2023-04-25T22:41:43.493Z,54.56
2023-04-25T22:44:11.088Z,54.36
2023-04-25T22:46:37.857Z,54.42
2023-04-25T22:49:04.891Z,54.39
2023-04-25T22:51:32.187Z,54.12
2023-04-25T22:53:59.169Z,54.07
2023-04-25T22:56:26.984Z,54.03
2023-04-25T22:58:53.944Z,54.19
2023-04-25T23:01:21.087Z,54.11
2023-04-25T23:03:48.473Z,54.41
2023-04-25T23:06:15.289Z,54.29
2023-04-25T23:08:41.888Z,54.05
2023-04-25T23:11:08.889Z,54.14
2023-04-25T23:13:38.769Z,54.34
2023-04-25T23:16:09.504Z,54.36
2023-04-25T23:18:40.276Z,54.11
2023-04-25T23:21:11.464Z,54.01
2023-04-25T23:23:38.716Z,54.22
2023-04-25T23:26:09.262Z,54.25
2023-04-25T23:28:38.736Z,54.41
2023-04-25T23:31:07.313Z,54.43
2023-04-25T23:33:34.489Z,54.15
2023-04-25T23:36:01.337Z,54.18
2023-04-25T23:38:28.223Z,53.69
2023-04-25T23:40:54.780Z,53.86
2023-04-25T23:43:21.513Z,53.71
2023-04-25T23:45:48.120Z,53.74
2023-04-25T23:48:15.508Z,54.38
2023-04-25T23:50:42.273Z,53.93
2023-04-25T23:53:09.722Z,54.22
2023-04-25T23:55:36.385Z,53.72
2023-04-25T23:58:03.718Z,54.14
